sensor_id;sensor_type;location;lat;lon;timestamp;pressure;altitude;pressure_sealevel;temperature;humidity
7376;BME280;3728;42.266;24.944;2023-03-12T00:01:18;98455.28;;;7.98;81.58
7376;BME280;3728;42.266;24.944;2023-03-12T00:03:47;98466.00;;;7.80;81.82
7376;BME280;3728;42.266;24.944;2023-03-12T00:06:17;98465.88;;;7.68;81.98
7376;BME280;3728;42.266;24.944;2023-03-12T00:08:46;98442.56;;;7.88;80.11
7376;BME280;3728;42.266;24.944;2023-03-12T00:11:17;98444.09;;;7.98;79.78
7376;BME280;3728;42.266;24.944;2023-03-12T00:13:50;98444.38;;;7.96;77.83
7376;BME280;3728;42.266;24.944;2023-03-12T00:16:20;98447.16;;;8.00;77.75
7376;BME280;3728;42.266;24.944;2023-03-12T00:18:49;98441.66;;;7.84;77.67
7376;BME280;3728;42.266;24.944;2023-03-12T00:21:18;98441.03;;;7.79;77.50
7376;BME280;3728;42.266;24.944;2023-03-12T00:23:48;98440.88;;;7.75;76.89
7376;BME280;3728;42.266;24.944;2023-03-12T00:26:16;98433.38;;;7.74;76.07
7376;BME280;3728;42.266;24.944;2023-03-12T00:28:48;98437.97;;;7.59;76.84
7376;BME280;3728;42.266;24.944;2023-03-12T00:31:24;98440.72;;;7.54;75.83
7376;BME280;3728;42.266;24.944;2023-03-12T00:33:55;98429.03;;;7.35;76.27
7376;BME280;3728;42.266;24.944;2023-03-12T00:36:28;98431.81;;;7.38;76.82
7376;BME280;3728;42.266;24.944;2023-03-12T00:38:58;98428.28;;;7.43;76.99
7376;BME280;3728;42.266;24.944;2023-03-12T00:41:27;98425.53;;;7.39;76.53
7376;BME280;3728;42.266;24.944;2023-03-12T00:43:56;98413.91;;;7.45;73.74
7376;BME280;3728;42.266;24.944;2023-03-12T00:46:23;98414.66;;;7.54;72.32
7376;BME280;3728;42.266;24.944;2023-03-12T00:48:51;98414.03;;;7.40;71.86
7376;BME280;3728;42.266;24.944;2023-03-12T00:51:19;98407.75;;;7.24;72.73
7376;BME280;3728;42.266;24.944;2023-03-12T00:53:46;98411.59;;;7.35;69.80
7376;BME280;3728;42.266;24.944;2023-03-12T00:56:14;98424.63;;;7.52;68.44
7376;BME280;3728;42.266;24.944;2023-03-12T00:58:41;98418.66;;;7.43;68.75
7376;BME280;3728;42.266;24.944;2023-03-12T01:01:09;98429.22;;;7.55;67.79
7376;BME280;3728;42.266;24.944;2023-03-12T01:03:37;98420.66;;;7.55;65.84
7376;BME280;3728;42.266;24.944;2023-03-12T01:06:05;98439.97;;;7.63;65.69
7376;BME280;3728;42.266;24.944;2023-03-12T01:08:32;98439.47;;;7.52;65.28
7376;BME280;3728;42.266;24.944;2023-03-12T01:11:00;98438.56;;;7.56;66.24
7376;BME280;3728;42.266;24.944;2023-03-12T01:13:28;98449.75;;;7.57;66.65
7376;BME280;3728;42.266;24.944;2023-03-12T01:15:56;98442.88;;;7.70;64.90
7376;BME280;3728;42.266;24.944;2023-03-12T01:18:23;98477.19;;;7.54;66.38
7376;BME280;3728;42.266;24.944;2023-03-12T01:20:51;98466.59;;;7.42;67.84
7376;BME280;3728;42.266;24.944;2023-03-12T01:23:19;98465.22;;;7.36;68.37
7376;BME280;3728;42.266;24.944;2023-03-12T01:25:47;98472.56;;;7.34;69.12
7376;BME280;3728;42.266;24.944;2023-03-12T01:28:15;98464.44;;;7.36;68.44
7376;BME280;3728;42.266;24.944;2023-03-12T01:30:42;98465.94;;;7.20;68.62
7376;BME280;3728;42.266;24.944;2023-03-12T01:33:10;98470.09;;;7.29;67.38
7376;BME280;3728;42.266;24.944;2023-03-12T01:35:38;98473.88;;;7.06;69.01
7376;BME280;3728;42.266;24.944;2023-03-12T01:38:11;98478.94;;;7.11;69.99
7376;BME280;3728;42.266;24.944;2023-03-12T01:40:42;98484.16;;;7.11;69.74
7376;BME280;3728;42.266;24.944;2023-03-12T01:43:32;98493.00;;;7.10;69.32
7376;BME280;3728;42.266;24.944;2023-03-12T01:51:24;98501.03;;;7.22;66.83
7376;BME280;3728;42.266;24.944;2023-03-12T01:53:59;98508.16;;;7.08;68.37
7376;BME280;3728;42.266;24.944;2023-03-12T01:56:33;98505.69;;;6.95;68.42
7376;BME280;3728;42.266;24.944;2023-03-12T01:59:08;98519.63;;;6.99;67.93
7376;BME280;3728;42.266;24.944;2023-03-12T02:01:39;98510.09;;;6.94;68.49
7376;BME280;3728;42.266;24.944;2023-03-12T02:04:09;98525.53;;;6.90;68.87
7376;BME280;3728;42.266;24.944;2023-03-12T02:06:46;98517.44;;;6.92;67.92
7376;BME280;3728;42.266;24.944;2023-03-12T02:09:37;98520.63;;;6.80;67.46
7376;BME280;3728;42.266;24.944;2023-03-12T02:12:11;98528.09;;;6.82;66.76
7376;BME280;3728;42.266;24.944;2023-03-12T02:14:39;98528.88;;;6.82;66.06
7376;BME280;3728;42.266;24.944;2023-03-12T02:17:08;98537.06;;;6.67;68.14
7376;BME280;3728;42.266;24.944;2023-03-12T02:20:03;98545.78;;;6.71;66.91
7376;BME280;3728;42.266;24.944;2023-03-12T02:22:38;98552.47;;;6.86;65.57
7376;BME280;3728;42.266;24.944;2023-03-12T02:25:29;98554.28;;;6.85;65.01
7376;BME280;3728;42.266;24.944;2023-03-12T02:28:07;98556.59;;;6.87;65.07
7376;BME280;3728;42.266;24.944;2023-03-12T02:30:38;98565.47;;;6.86;63.59
7376;BME280;3728;42.266;24.944;2023-03-12T02:33:09;98560.38;;;6.81;64.52
7376;BME280;3728;42.266;24.944;2023-03-12T02:35:38;98579.59;;;6.94;64.23
7376;BME280;3728;42.266;24.944;2023-03-12T02:38:32;98578.31;;;7.13;61.86
7376;BME280;3728;42.266;24.944;2023-03-12T02:41:14;98580.41;;;7.03;62.49
7376;BME280;3728;42.266;24.944;2023-03-12T02:46:55;98586.25;;;6.55;64.95
7376;BME280;3728;42.266;24.944;2023-03-12T02:49:28;98583.56;;;6.69;64.32
7376;BME280;3728;42.266;24.944;2023-03-12T02:51:58;98584.66;;;6.68;65.04
7376;BME280;3728;42.266;24.944;2023-03-12T02:54:27;98593.41;;;6.72;64.36
7376;BME280;3728;42.266;24.944;2023-03-12T02:56:56;98609.59;;;6.69;65.79
7376;BME280;3728;42.266;24.944;2023-03-12T02:59:25;98611.38;;;6.38;67.08
7376;BME280;3728;42.266;24.944;2023-03-12T03:01:57;98610.75;;;6.41;69.14
7376;BME280;3728;42.266;24.944;2023-03-12T03:04:28;98616.50;;;6.15;71.17
7376;BME280;3728;42.266;24.944;2023-03-12T03:06:56;98623.22;;;6.30;70.53
7376;BME280;3728;42.266;24.944;2023-03-12T03:09:24;98624.31;;;6.15;71.17
7376;BME280;3728;42.266;24.944;2023-03-12T03:11:52;98629.34;;;5.58;73.97
7376;BME280;3728;42.266;24.944;2023-03-12T03:14:21;98635.50;;;5.75;72.18
7376;BME280;3728;42.266;24.944;2023-03-12T03:16:50;98646.09;;;5.79;72.94
7376;BME280;3728;42.266;24.944;2023-03-12T03:19:20;98647.28;;;5.86;73.30
7376;BME280;3728;42.266;24.944;2023-03-12T03:21:48;98660.53;;;5.85;73.05
7376;BME280;3728;42.266;24.944;2023-03-12T03:24:16;98664.06;;;6.16;71.26
7376;BME280;3728;42.266;24.944;2023-03-12T03:26:43;98668.22;;;6.03;71.79
7376;BME280;3728;42.266;24.944;2023-03-12T03:29:11;98670.75;;;5.95;71.26
7376;BME280;3728;42.266;24.944;2023-03-12T03:31:39;98677.97;;;5.98;71.48
7376;BME280;3728;42.266;24.944;2023-03-12T03:34:07;98685.16;;;6.14;69.15
7376;BME280;3728;42.266;24.944;2023-03-12T03:36:34;98681.69;;;6.05;68.28
7376;BME280;3728;42.266;24.944;2023-03-12T03:39:07;98668.31;;;5.85;69.03
7376;BME280;3728;42.266;24.944;2023-03-12T03:41:35;98672.84;;;5.79;69.09
7376;BME280;3728;42.266;24.944;2023-03-12T03:44:05;98675.53;;;6.01;68.07
7376;BME280;3728;42.266;24.944;2023-03-12T03:46:35;98675.63;;;5.96;66.99
7376;BME280;3728;42.266;24.944;2023-03-12T03:49:05;98687.91;;;5.77;68.15
7376;BME280;3728;42.266;24.944;2023-03-12T03:51:34;98685.63;;;5.76;68.24
7376;BME280;3728;42.266;24.944;2023-03-12T03:54:06;98689.03;;;5.90;67.67
7376;BME280;3728;42.266;24.944;2023-03-12T03:56:35;98695.06;;;5.72;67.55
7376;BME280;3728;42.266;24.944;2023-03-12T03:59:04;98688.22;;;5.76;67.22
7376;BME280;3728;42.266;24.944;2023-03-12T04:01:34;98688.41;;;5.66;67.93
7376;BME280;3728;42.266;24.944;2023-03-12T04:04:03;98705.72;;;5.70;66.34
7376;BME280;3728;42.266;24.944;2023-03-12T04:06:32;98711.28;;;5.64;67.54
7376;BME280;3728;42.266;24.944;2023-03-12T04:09:01;98711.84;;;5.61;67.68
7376;BME280;3728;42.266;24.944;2023-03-12T04:11:30;98716.75;;;5.48;68.11
7376;BME280;3728;42.266;24.944;2023-03-12T04:13:59;98723.09;;;5.56;67.87
7376;BME280;3728;42.266;24.944;2023-03-12T04:16:29;98728.28;;;5.56;66.74
7376;BME280;3728;42.266;24.944;2023-03-12T04:18:57;98733.38;;;5.47;67.77
7376;BME280;3728;42.266;24.944;2023-03-12T04:21:26;98747.25;;;5.57;67.01
7376;BME280;3728;42.266;24.944;2023-03-12T04:23:53;98742.03;;;5.43;67.78
7376;BME280;3728;42.266;24.944;2023-03-12T04:26:25;98737.72;;;5.52;67.07
7376;BME280;3728;42.266;24.944;2023-03-12T04:28:54;98746.78;;;5.54;67.67
7376;BME280;3728;42.266;24.944;2023-03-12T04:31:21;98751.09;;;5.59;67.54
7376;BME280;3728;42.266;24.944;2023-03-12T04:33:49;98751.63;;;5.42;67.34
7376;BME280;3728;42.266;24.944;2023-03-12T04:36:21;98751.41;;;5.71;66.29
7376;BME280;3728;42.266;24.944;2023-03-12T04:38:50;98754.59;;;5.82;65.63
7376;BME280;3728;42.266;24.944;2023-03-12T04:41:22;98748.75;;;5.76;65.14
7376;BME280;3728;42.266;24.944;2023-03-12T04:43:55;98755.34;;;5.55;66.07
7376;BME280;3728;42.266;24.944;2023-03-12T04:46:23;98763.03;;;5.60;65.56
7376;BME280;3728;42.266;24.944;2023-03-12T04:48:50;98768.59;;;5.53;66.94
7376;BME280;3728;42.266;24.944;2023-03-12T04:51:18;98764.88;;;5.60;65.75
7376;BME280;3728;42.266;24.944;2023-03-12T04:53:46;98768.00;;;5.43;65.80
7376;BME280;3728;42.266;24.944;2023-03-12T04:56:14;98783.22;;;5.63;65.37
7376;BME280;3728;42.266;24.944;2023-03-12T04:58:43;98779.66;;;5.59;63.98
7376;BME280;3728;42.266;24.944;2023-03-12T05:01:20;98783.81;;;5.60;64.35
7376;BME280;3728;42.266;24.944;2023-03-12T05:04:02;98788.72;;;5.62;64.97
7376;BME280;3728;42.266;24.944;2023-03-12T05:06:31;98794.44;;;5.77;64.23
7376;BME280;3728;42.266;24.944;2023-03-12T05:08:59;98801.91;;;5.97;64.41
7376;BME280;3728;42.266;24.944;2023-03-12T05:11:27;98806.16;;;5.93;64.93
7376;BME280;3728;42.266;24.944;2023-03-12T05:13:54;98805.16;;;5.89;63.63
7376;BME280;3728;42.266;24.944;2023-03-12T05:16:22;98818.56;;;5.96;61.25
7376;BME280;3728;42.266;24.944;2023-03-12T05:18:50;98828.00;;;5.92;61.96
7376;BME280;3728;42.266;24.944;2023-03-12T05:21:19;98820.75;;;5.89;61.18
7376;BME280;3728;42.266;24.944;2023-03-12T05:23:51;98817.69;;;5.87;61.51
7376;BME280;3728;42.266;24.944;2023-03-12T05:26:22;98821.63;;;5.98;61.07
7376;BME280;3728;42.266;24.944;2023-03-12T05:28:53;98827.91;;;6.11;60.59
7376;BME280;3728;42.266;24.944;2023-03-12T05:31:23;98841.31;;;6.18;58.92
7376;BME280;3728;42.266;24.944;2023-03-12T05:33:52;98829.56;;;6.20;59.83
7376;BME280;3728;42.266;24.944;2023-03-12T05:36:21;98842.66;;;6.29;59.37
7376;BME280;3728;42.266;24.944;2023-03-12T05:38:49;98849.03;;;6.23;59.67
7376;BME280;3728;42.266;24.944;2023-03-12T05:41:27;98854.53;;;6.22;58.41
7376;BME280;3728;42.266;24.944;2023-03-12T05:43:59;98861.63;;;6.16;59.05
7376;BME280;3728;42.266;24.944;2023-03-12T05:46:28;98854.22;;;6.23;59.01
7376;BME280;3728;42.266;24.944;2023-03-12T05:48:57;98864.31;;;6.25;59.12
7376;BME280;3728;42.266;24.944;2023-03-12T05:51:26;98884.50;;;6.46;58.61
7376;BME280;3728;42.266;24.944;2023-03-12T05:53:53;98888.53;;;6.39;58.82
7376;BME280;3728;42.266;24.944;2023-03-12T05:56:21;98890.84;;;6.54;58.34
7376;BME280;3728;42.266;24.944;2023-03-12T05:58:49;98893.47;;;6.54;57.95
7376;BME280;3728;42.266;24.944;2023-03-12T06:01:24;98903.09;;;6.53;57.75
7376;BME280;3728;42.266;24.944;2023-03-12T06:03:55;98920.91;;;6.60;58.33
7376;BME280;3728;42.266;24.944;2023-03-12T06:06:24;98923.25;;;6.61;58.15
7376;BME280;3728;42.266;24.944;2023-03-12T06:08:54;98927.75;;;6.69;58.35
7376;BME280;3728;42.266;24.944;2023-03-12T06:11:22;98926.22;;;6.82;59.51
7376;BME280;3728;42.266;24.944;2023-03-12T06:13:50;98937.69;;;7.08;59.59
7376;BME280;3728;42.266;24.944;2023-03-12T06:16:23;98943.31;;;7.02;58.61
7376;BME280;3728;42.266;24.944;2023-03-12T06:18:53;98938.44;;;7.36;57.52
7376;BME280;3728;42.266;24.944;2023-03-12T06:21:27;98947.16;;;7.18;57.65
7376;BME280;3728;42.266;24.944;2023-03-12T06:23:57;98956.75;;;7.31;57.29
7376;BME280;3728;42.266;24.944;2023-03-12T06:26:29;98958.31;;;7.32;58.39
7376;BME280;3728;42.266;24.944;2023-03-12T06:28:57;98942.88;;;7.35;56.79
7376;BME280;3728;42.266;24.944;2023-03-12T06:31:25;98945.69;;;7.39;57.11
7376;BME280;3728;42.266;24.944;2023-03-12T06:33:52;98957.53;;;7.31;56.58
7376;BME280;3728;42.266;24.944;2023-03-12T06:36:20;98969.81;;;7.17;56.79
7376;BME280;3728;42.266;24.944;2023-03-12T06:38:50;98966.31;;;7.35;55.14
7376;BME280;3728;42.266;24.944;2023-03-12T06:41:18;98977.72;;;7.12;56.24
7376;BME280;3728;42.266;24.944;2023-03-12T06:43:47;98977.59;;;7.31;55.07
7376;BME280;3728;42.266;24.944;2023-03-12T06:46:18;98980.69;;;7.33;55.78
7376;BME280;3728;42.266;24.944;2023-03-12T06:48:47;98972.38;;;7.44;55.39
7376;BME280;3728;42.266;24.944;2023-03-12T06:51:19;98967.66;;;7.46;55.36
7376;BME280;3728;42.266;24.944;2023-03-12T06:53:47;98970.50;;;7.58;55.86
7376;BME280;3728;42.266;24.944;2023-03-12T06:56:15;98973.00;;;7.64;54.63
7376;BME280;3728;42.266;24.944;2023-03-12T06:58:43;98973.16;;;7.45;54.43
7376;BME280;3728;42.266;24.944;2023-03-12T07:01:10;98974.78;;;7.54;54.75
7376;BME280;3728;42.266;24.944;2023-03-12T07:03:38;98976.13;;;7.88;54.33
7376;BME280;3728;42.266;24.944;2023-03-12T07:06:13;98981.19;;;7.84;54.42
7376;BME280;3728;42.266;24.944;2023-03-12T07:08:45;98989.66;;;7.90;52.68
7376;BME280;3728;42.266;24.944;2023-03-12T07:11:14;99001.16;;;7.89;52.66
7376;BME280;3728;42.266;24.944;2023-03-12T07:13:43;99001.38;;;8.01;52.91
7376;BME280;3728;42.266;24.944;2023-03-12T07:16:11;99017.16;;;8.18;52.43
7376;BME280;3728;42.266;24.944;2023-03-12T07:18:39;99020.88;;;8.17;51.64
7376;BME280;3728;42.266;24.944;2023-03-12T07:21:07;99027.91;;;8.16;52.01
7376;BME280;3728;42.266;24.944;2023-03-12T07:23:35;99038.38;;;8.61;52.16
7376;BME280;3728;42.266;24.944;2023-03-12T07:26:04;99043.78;;;8.64;50.66
7376;BME280;3728;42.266;24.944;2023-03-12T07:28:32;99049.19;;;8.76;50.63
7376;BME280;3728;42.266;24.944;2023-03-12T07:31:01;99041.47;;;8.93;49.61
7376;BME280;3728;42.266;24.944;2023-03-12T07:33:29;99039.19;;;9.01;49.84
7376;BME280;3728;42.266;24.944;2023-03-12T07:35:57;99041.22;;;9.04;50.44
7376;BME280;3728;42.266;24.944;2023-03-12T07:38:25;99047.13;;;9.26;49.96
7376;BME280;3728;42.266;24.944;2023-03-12T07:40:55;99043.13;;;9.20;50.85
7376;BME280;3728;42.266;24.944;2023-03-12T07:43:24;99053.47;;;9.34;48.62
7376;BME280;3728;42.266;24.944;2023-03-12T07:45:55;99047.06;;;9.57;48.46
7376;BME280;3728;42.266;24.944;2023-03-12T07:48:24;99046.19;;;9.70;48.13
7376;BME280;3728;42.266;24.944;2023-03-12T07:50:52;99031.47;;;9.91;49.47
7376;BME280;3728;42.266;24.944;2023-03-12T07:53:20;99031.78;;;10.15;46.83
7376;BME280;3728;42.266;24.944;2023-03-12T07:55:48;99039.63;;;9.98;44.15
7376;BME280;3728;42.266;24.944;2023-03-12T07:58:16;99031.28;;;9.88;43.01
7376;BME280;3728;42.266;24.944;2023-03-12T08:00:47;99028.38;;;9.98;44.21
7376;BME280;3728;42.266;24.944;2023-03-12T08:03:15;99025.03;;;10.32;43.10
7376;BME280;3728;42.266;24.944;2023-03-12T08:05:42;99026.22;;;10.08;42.31
7376;BME280;3728;42.266;24.944;2023-03-12T08:08:11;99032.88;;;10.40;41.39
7376;BME280;3728;42.266;24.944;2023-03-12T08:10:38;99023.47;;;10.13;41.61
7376;BME280;3728;42.266;24.944;2023-03-12T08:13:06;99024.09;;;10.36;41.91
7376;BME280;3728;42.266;24.944;2023-03-12T08:15:34;99028.06;;;10.51;42.14
7376;BME280;3728;42.266;24.944;2023-03-12T08:18:01;99024.34;;;10.69;41.56
7376;BME280;3728;42.266;24.944;2023-03-12T08:20:29;99021.56;;;10.74;41.13
7376;BME280;3728;42.266;24.944;2023-03-12T08:22:58;99019.47;;;10.42;41.14
7376;BME280;3728;42.266;24.944;2023-03-12T08:25:26;99018.66;;;10.58;43.84
7376;BME280;3728;42.266;24.944;2023-03-12T08:27:54;99027.09;;;10.72;41.53
7376;BME280;3728;42.266;24.944;2023-03-12T08:30:21;99022.34;;;10.66;41.25
7376;BME280;3728;42.266;24.944;2023-03-12T08:32:49;99026.06;;;10.56;42.58
7376;BME280;3728;42.266;24.944;2023-03-12T08:35:20;99028.94;;;10.72;43.54
7376;BME280;3728;42.266;24.944;2023-03-12T08:37:48;99041.69;;;10.90;43.39
7376;BME280;3728;42.266;24.944;2023-03-12T08:40:16;99030.09;;;11.00;41.67
7376;BME280;3728;42.266;24.944;2023-03-12T08:42:47;99030.09;;;11.00;40.22
7376;BME280;3728;42.266;24.944;2023-03-12T08:45:15;99031.09;;;11.25;40.97
7376;BME280;3728;42.266;24.944;2023-03-12T08:47:45;99037.75;;;11.51;42.56
7376;BME280;3728;42.266;24.944;2023-03-12T08:50:13;99036.47;;;11.57;41.53
7376;BME280;3728;42.266;24.944;2023-03-12T08:52:43;99035.03;;;11.68;39.82
7376;BME280;3728;42.266;24.944;2023-03-12T08:55:10;99039.25;;;11.61;39.36
7376;BME280;3728;42.266;24.944;2023-03-12T08:57:38;99035.06;;;11.60;38.87
7376;BME280;3728;42.266;24.944;2023-03-12T09:00:07;99034.38;;;11.42;40.37
7376;BME280;3728;42.266;24.944;2023-03-12T09:02:44;99034.13;;;11.64;41.01
7376;BME280;3728;42.266;24.944;2023-03-12T09:05:13;99047.94;;;12.03;38.39
7376;BME280;3728;42.266;24.944;2023-03-12T09:07:42;99045.44;;;11.86;38.88
7376;BME280;3728;42.266;24.944;2023-03-12T09:10:11;99047.59;;;11.84;38.88
7376;BME280;3728;42.266;24.944;2023-03-12T09:12:38;99040.25;;;11.98;38.81
7376;BME280;3728;42.266;24.944;2023-03-12T09:15:07;99046.75;;;11.71;40.02
7376;BME280;3728;42.266;24.944;2023-03-12T09:17:36;99042.00;;;11.94;39.25
7376;BME280;3728;42.266;24.944;2023-03-12T09:20:05;99044.53;;;11.82;38.42
7376;BME280;3728;42.266;24.944;2023-03-12T09:22:35;99053.13;;;11.91;39.68
7376;BME280;3728;42.266;24.944;2023-03-12T09:25:04;99050.13;;;12.01;39.48
7376;BME280;3728;42.266;24.944;2023-03-12T09:27:44;99038.50;;;12.22;38.85
7376;BME280;3728;42.266;24.944;2023-03-12T09:30:19;99048.25;;;12.22;40.00
7376;BME280;3728;42.266;24.944;2023-03-12T09:32:48;99048.69;;;12.24;37.49
7376;BME280;3728;42.266;24.944;2023-03-12T09:35:16;99053.50;;;12.22;35.67
7376;BME280;3728;42.266;24.944;2023-03-12T09:37:48;99057.81;;;12.06;36.45
7376;BME280;3728;42.266;24.944;2023-03-12T09:40:21;99057.09;;;12.17;36.74
7376;BME280;3728;42.266;24.944;2023-03-12T09:42:56;99063.59;;;12.53;37.84
7376;BME280;3728;42.266;24.944;2023-03-12T09:45:46;99065.94;;;12.13;36.44
7376;BME280;3728;42.266;24.944;2023-03-12T09:48:19;99065.09;;;12.21;37.69
7376;BME280;3728;42.266;24.944;2023-03-12T09:53:51;99077.81;;;11.90;36.51
7376;BME280;3728;42.266;24.944;2023-03-12T09:56:22;99075.13;;;12.19;36.18
7376;BME280;3728;42.266;24.944;2023-03-12T09:58:50;99092.59;;;12.56;36.04
7376;BME280;3728;42.266;24.944;2023-03-12T10:06:44;99085.50;;;12.36;37.24
7376;BME280;3728;42.266;24.944;2023-03-12T10:13:02;99093.13;;;13.27;34.40
7376;BME280;3728;42.266;24.944;2023-03-12T10:16:03;99096.19;;;13.90;35.35
7376;BME280;3728;42.266;24.944;2023-03-12T10:21:41;99092.72;;;14.37;33.94
7376;BME280;3728;42.266;24.944;2023-03-12T10:27:17;99096.22;;;14.69;32.20
7376;BME280;3728;42.266;24.944;2023-03-12T10:29:47;99087.69;;;14.32;32.92
7376;BME280;3728;42.266;24.944;2023-03-12T10:32:26;99096.47;;;14.64;34.19
7376;BME280;3728;42.266;24.944;2023-03-12T10:35:03;99099.06;;;15.07;32.08
7376;BME280;3728;42.266;24.944;2023-03-12T10:37:45;99098.56;;;14.59;33.76
7376;BME280;3728;42.266;24.944;2023-03-12T10:40:22;99094.81;;;14.32;33.65
7376;BME280;3728;42.266;24.944;2023-03-12T10:42:52;99099.44;;;15.06;31.33
7376;BME280;3728;42.266;24.944;2023-03-12T10:45:32;99098.56;;;15.33;30.90
7376;BME280;3728;42.266;24.944;2023-03-12T10:48:21;99098.28;;;14.91;32.98
7376;BME280;3728;42.266;24.944;2023-03-12T10:51:05;99103.44;;;15.00;32.29
7376;BME280;3728;42.266;24.944;2023-03-12T10:53:39;99088.78;;;14.31;34.49
7376;BME280;3728;42.266;24.944;2023-03-12T10:56:18;99101.31;;;14.22;32.82
7376;BME280;3728;42.266;24.944;2023-03-12T10:58:50;99095.63;;;14.76;32.09
7376;BME280;3728;42.266;24.944;2023-03-12T11:01:22;99096.41;;;14.76;32.51
7376;BME280;3728;42.266;24.944;2023-03-12T11:04:08;99095.94;;;15.02;33.33
7376;BME280;3728;42.266;24.944;2023-03-12T11:09:40;99082.53;;;14.79;33.16
7376;BME280;3728;42.266;24.944;2023-03-12T11:12:24;99085.69;;;14.85;31.75
7376;BME280;3728;42.266;24.944;2023-03-12T11:14:56;99087.38;;;14.77;32.64
7376;BME280;3728;42.266;24.944;2023-03-12T11:17:28;99091.00;;;15.00;32.46
7376;BME280;3728;42.266;24.944;2023-03-12T11:20:27;99084.44;;;15.10;32.23
7376;BME280;3728;42.266;24.944;2023-03-12T11:22:56;99083.72;;;15.56;30.26
7376;BME280;3728;42.266;24.944;2023-03-12T11:25:27;99088.03;;;15.64;32.21
7376;BME280;3728;42.266;24.944;2023-03-12T11:27:58;99091.28;;;15.93;30.04
7376;BME280;3728;42.266;24.944;2023-03-12T11:30:36;99100.63;;;15.71;30.18
7376;BME280;3728;42.266;24.944;2023-03-12T11:33:08;99090.91;;;15.13;29.70
7376;BME280;3728;42.266;24.944;2023-03-12T11:36:12;99091.97;;;14.65;30.53
7376;BME280;3728;42.266;24.944;2023-03-12T11:54:39;99081.91;;;15.14;30.00
7376;BME280;3728;42.266;24.944;2023-03-12T11:57:55;99086.94;;;15.34;30.64
7376;BME280;3728;42.266;24.944;2023-03-12T12:00:48;99083.28;;;15.54;29.73
7376;BME280;3728;42.266;24.944;2023-03-12T12:10:35;99094.44;;;16.52;28.04
7376;BME280;3728;42.266;24.944;2023-03-12T12:19:14;99092.81;;;16.86;29.78
7376;BME280;3728;42.266;24.944;2023-03-12T12:28:09;99090.09;;;17.76;29.26
7376;BME280;3728;42.266;24.944;2023-03-12T12:31:00;99097.53;;;18.23;28.43
7376;BME280;3728;42.266;24.944;2023-03-12T12:34:14;99102.09;;;18.23;28.88
7376;BME280;3728;42.266;24.944;2023-03-12T12:37:28;99103.25;;;18.55;25.70
7376;BME280;3728;42.266;24.944;2023-03-12T12:40:17;99107.13;;;18.31;26.10
7376;BME280;3728;42.266;24.944;2023-03-12T12:45:43;99102.28;;;17.81;26.98
7376;BME280;3728;42.266;24.944;2023-03-12T12:48:34;99107.97;;;18.09;27.66
7376;BME280;3728;42.266;24.944;2023-03-12T12:51:06;99118.13;;;18.33;26.86
7376;BME280;3728;42.266;24.944;2023-03-12T12:54:00;99125.06;;;18.41;26.17
7376;BME280;3728;42.266;24.944;2023-03-12T13:02:20;99114.94;;;18.21;26.59
7376;BME280;3728;42.266;24.944;2023-03-12T13:04:55;99127.34;;;18.43;25.74
7376;BME280;3728;42.266;24.944;2023-03-12T13:09:55;99121.38;;;18.50;27.18
7376;BME280;3728;42.266;24.944;2023-03-12T13:14:59;99125.97;;;19.26;26.24
7376;BME280;3728;42.266;24.944;2023-03-12T13:21:03;99121.69;;;20.20;26.02
7376;BME280;3728;42.266;24.944;2023-03-12T13:23:54;99128.38;;;20.72;23.89
7376;BME280;3728;42.266;24.944;2023-03-12T13:29:37;99124.66;;;21.08;25.24
7376;BME280;3728;42.266;24.944;2023-03-12T13:32:36;99133.81;;;21.63;24.93
7376;BME280;3728;42.266;24.944;2023-03-12T13:43:15;99141.06;;;21.73;22.71
7376;BME280;3728;42.266;24.944;2023-03-12T13:46:04;99136.44;;;21.81;23.32
7376;BME280;3728;42.266;24.944;2023-03-12T13:48:45;99153.00;;;22.66;21.20
7376;BME280;3728;42.266;24.944;2023-03-12T13:53:51;99145.56;;;23.02;22.00
7376;BME280;3728;42.266;24.944;2023-03-12T13:56:30;99150.41;;;23.72;21.25
7376;BME280;3728;42.266;24.944;2023-03-12T13:59:05;99149.06;;;24.32;20.43
7376;BME280;3728;42.266;24.944;2023-03-12T14:01:45;99149.22;;;24.82;20.42
7376;BME280;3728;42.266;24.944;2023-03-12T14:04:24;99164.31;;;25.49;19.57
7376;BME280;3728;42.266;24.944;2023-03-12T14:10:25;99158.81;;;26.02;19.97
7376;BME280;3728;42.266;24.944;2023-03-12T14:13:14;99154.84;;;26.10;19.32
7376;BME280;3728;42.266;24.944;2023-03-12T14:16:06;99159.41;;;26.33;18.99
7376;BME280;3728;42.266;24.944;2023-03-12T14:18:36;99150.28;;;26.07;20.79
7376;BME280;3728;42.266;24.944;2023-03-12T14:21:09;99159.38;;;25.21;19.14
7376;BME280;3728;42.266;24.944;2023-03-12T14:23:48;99157.88;;;25.69;19.10
7376;BME280;3728;42.266;24.944;2023-03-12T14:26:26;99160.13;;;25.71;19.31
7376;BME280;3728;42.266;24.944;2023-03-12T14:29:02;99158.75;;;26.06;18.34
7376;BME280;3728;42.266;24.944;2023-03-12T14:31:36;99160.59;;;25.66;18.59
7376;BME280;3728;42.266;24.944;2023-03-12T14:34:08;99164.44;;;26.11;18.47
7376;BME280;3728;42.266;24.944;2023-03-12T14:37:08;99174.88;;;26.65;18.71
7376;BME280;3728;42.266;24.944;2023-03-12T14:40:17;99180.59;;;27.38;18.57
7376;BME280;3728;42.266;24.944;2023-03-12T14:42:48;99186.00;;;27.02;17.76
7376;BME280;3728;42.266;24.944;2023-03-12T14:45:18;99179.75;;;26.11;19.28
7376;BME280;3728;42.266;24.944;2023-03-12T14:47:54;99183.06;;;26.58;19.18
7376;BME280;3728;42.266;24.944;2023-03-12T14:50:37;99188.63;;;26.67;19.05
7376;BME280;3728;42.266;24.944;2023-03-12T14:53:15;99190.72;;;26.39;19.71
7376;BME280;3728;42.266;24.944;2023-03-12T14:56:00;99196.78;;;26.83;18.14
7376;BME280;3728;42.266;24.944;2023-03-12T14:58:31;99199.81;;;26.85;19.15
7376;BME280;3728;42.266;24.944;2023-03-12T15:01:06;99201.25;;;26.89;18.28
7376;BME280;3728;42.266;24.944;2023-03-12T15:04:13;99205.25;;;26.62;18.03
7376;BME280;3728;42.266;24.944;2023-03-12T15:06:47;99204.63;;;26.34;18.61
7376;BME280;3728;42.266;24.944;2023-03-12T15:09:28;99212.00;;;26.50;18.92
7376;BME280;3728;42.266;24.944;2023-03-12T15:12:03;99206.34;;;26.25;18.76
7376;BME280;3728;42.266;24.944;2023-03-12T15:14:35;99208.56;;;25.60;18.96
7376;BME280;3728;42.266;24.944;2023-03-12T15:17:05;99212.38;;;25.63;18.81
7376;BME280;3728;42.266;24.944;2023-03-12T15:19:36;99222.00;;;25.60;19.66
7376;BME280;3728;42.266;24.944;2023-03-12T15:22:10;99224.91;;;24.52;22.02
7376;BME280;3728;42.266;24.944;2023-03-12T15:24:46;99224.25;;;23.59;21.13
7376;BME280;3728;42.266;24.944;2023-03-12T15:29:57;99228.94;;;22.51;21.36